Time;durP1;ratioP1;P1;durP2;ratioP2;P2;SDS_P1;SDS_P2;PMS_P1;PMS_P2;Temp;Humidity;BMP_temperature;BMP_pressure;BME280_temperature;BME280_humidity;BME280_pressure;Samples;Min_cycle;Max_cycle;Signal;HPM_P1;HPM_P2
2022/12/05 00:00:56;;;;;;;13.27;7.38;;;4.10;83.00;;;;;;4144193;28;20062;-83
2022/12/05 00:03:17;;;;;;;12.55;7.10;;;4.10;83.00;;;;;;4158521;28;20137;-85
2022/12/05 00:05:41;;;;;;;13.18;7.50;;;4.10;82.90;;;;;;4161441;28;20087;-83
2022/12/05 00:08:02;;;;;;;13.93;6.88;;;4.10;82.90;;;;;;4146256;28;20073;-84
2022/12/05 00:10:22;;;;;;;13.07;7.22;;;4.10;82.80;;;;;;4159838;28;20042;-84
2022/12/05 00:12:43;;;;;;;16.08;7.53;;;4.10;82.60;;;;;;4156027;28;20095;-84
2022/12/05 00:14:44;;;;;;;14.38;7.25;;;4.00;82.70;;;;;;4160212;28;20034;-84
2022/12/05 00:16:44;;;;;;;12.30;6.88;;;4.10;82.60;;;;;;4159610;28;20030;-83
2022/12/05 00:18:45;;;;;;;12.52;6.40;;;4.10;82.60;;;;;;4161793;28;20033;-84
2022/12/05 00:20:47;;;;;;;15.75;6.85;;;4.10;82.70;;;;;;4164514;28;20041;-84
2022/12/05 00:22:48;;;;;;;12.57;6.80;;;4.00;82.80;;;;;;4163320;28;20030;-85
2022/12/05 00:24:49;;;;;;;10.18;6.35;;;4.10;82.70;;;;;;4158312;28;20041;-83
2022/12/05 00:26:49;;;;;;;12.40;6.78;;;4.10;82.60;;;;;;4160112;28;20052;-84
2022/12/05 00:28:51;;;;;;;13.95;7.00;;;4.10;82.60;;;;;;4145360;28;20069;-84
2022/12/05 00:30:51;;;;;;;12.05;6.80;;;4.00;82.60;;;;;;4145538;28;20034;-84
2022/12/05 00:32:52;;;;;;;13.20;6.82;;;4.10;82.60;;;;;;4149654;28;20355;-84
2022/12/05 00:34:52;;;;;;;12.80;7.00;;;4.10;82.70;;;;;;4164326;28;20030;-84
2022/12/05 00:36:53;;;;;;;15.82;6.70;;;4.10;82.60;;;;;;4161872;28;20030;-83
2022/12/05 00:38:54;;;;;;;14.75;7.28;;;4.00;82.70;;;;;;4134329;28;20054;-85
2022/12/05 00:41:00;;;;;;;12.35;5.65;;;4.10;82.60;;;;;;4165610;28;20116;-84
2022/12/05 00:43:01;;;;;;;11.55;6.22;;;4.10;82.60;;;;;;4160145;28;20111;-84
2022/12/05 00:45:02;;;;;;;13.93;5.95;;;4.10;82.50;;;;;;4145721;28;20034;-85
2022/12/05 00:47:02;;;;;;;9.27;5.70;;;4.10;82.50;;;;;;4165489;28;20057;-84
2022/12/05 00:49:06;;;;;;;10.27;5.63;;;4.10;82.40;;;;;;4162603;28;20036;-85
2022/12/05 00:51:16;;;;;;;9.90;5.45;;;4.10;82.30;;;;;;4162801;28;20030;-82
2022/12/05 00:53:17;;;;;;;9.40;5.40;;;4.10;82.20;;;;;;4162570;28;20029;-84
2022/12/05 00:55:18;;;;;;;12.05;6.03;;;4.10;83.20;;;;;;4147380;28;20149;-84
2022/12/05 00:57:18;;;;;;;11.30;5.20;;;4.00;82.60;;;;;;4145613;28;20022;-84
2022/12/05 00:59:19;;;;;;;9.80;5.20;;;4.00;82.60;;;;;;4146911;28;20029;-83
2022/12/05 01:01:31;;;;;;;10.23;5.63;;;4.10;82.50;;;;;;4165607;28;21944;-83
2022/12/05 01:03:32;;;;;;;12.65;4.93;;;4.00;82.30;;;;;;4156030;28;20125;-84
2022/12/05 01:05:33;;;;;;;10.38;5.53;;;4.10;82.40;;;;;;4142174;28;20048;-84
2022/12/05 01:07:33;;;;;;;11.93;5.50;;;4.10;82.40;;;;;;4162351;28;20400;-83
2022/12/05 01:09:34;;;;;;;10.75;5.32;;;4.00;82.40;;;;;;4163933;28;20022;-85
2022/12/05 01:11:35;;;;;;;12.68;6.10;;;4.00;82.30;;;;;;4161528;28;20025;-85
2022/12/05 01:13:36;;;;;;;12.95;5.53;;;4.00;82.30;;;;;;4164933;28;20033;-84
2022/12/05 01:15:36;;;;;;;10.35;5.57;;;4.00;82.30;;;;;;4160802;28;20033;-84
2022/12/05 01:17:38;;;;;;;12.52;5.70;;;4.00;82.30;;;;;;4140152;28;20018;-83
2022/12/05 01:19:58;;;;;;;12.23;5.93;;;4.00;82.40;;;;;;4148195;28;20058;-84
2022/12/05 01:21:59;;;;;;;9.13;5.63;;;4.10;82.40;;;;;;4159719;28;20071;-84
2022/12/05 01:24:00;;;;;;;14.98;6.13;;;4.10;82.40;;;;;;4134151;28;20122;-84
2022/12/05 01:26:21;;;;;;;10.93;5.55;;;4.10;82.40;;;;;;4162532;28;20037;-83
2022/12/05 01:28:22;;;;;;;8.65;4.57;;;4.00;82.30;;;;;;4143574;28;20029;-84
2022/12/05 01:30:45;;;;;;;10.93;6.20;;;4.10;82.40;;;;;;4148697;28;20038;-85
2022/12/05 01:33:06;;;;;;;9.07;5.55;;;4.10;82.30;;;;;;4164657;28;20061;-83
2022/12/05 01:35:29;;;;;;;12.32;5.70;;;4.00;82.20;;;;;;4163407;28;20124;-83
2022/12/05 01:37:50;;;;;;;11.70;5.18;;;4.00;82.20;;;;;;4160271;28;20095;-84
2022/12/05 01:40:11;;;;;;;18.73;5.07;;;4.00;82.10;;;;;;4160616;28;20050;-83
2022/12/05 01:42:31;;;;;;;11.05;5.45;;;4.00;82.10;;;;;;4149219;28;20034;-85
2022/12/05 01:45:02;;;;;;;12.43;5.50;;;4.00;82.20;;;;;;4161935;28;20079;-85
2022/12/05 01:47:25;;;;;;;10.52;5.65;;;4.10;82.30;;;;;;4151996;28;20044;-85
2022/12/05 01:49:46;;;;;;;9.65;5.20;;;4.00;82.20;;;;;;4165162;28;20095;-84
2022/12/05 01:52:15;;;;;;;12.50;5.88;;;4.00;82.20;;;;;;4162604;28;20038;-82
2022/12/05 01:54:17;;;;;;;13.90;5.65;;;4.00;82.10;;;;;;4143657;28;20041;-83
2022/12/05 01:56:19;;;;;;;10.25;5.65;;;4.00;82.10;;;;;;4163167;28;20036;-85
2022/12/05 01:58:21;;;;;;;13.27;6.05;;;4.00;82.00;;;;;;4164666;28;20033;-84
2022/12/05 02:00:22;;;;;;;9.43;5.85;;;4.00;81.90;;;;;;4161422;28;20566;-83
2022/12/05 02:02:23;;;;;;;13.27;6.30;;;4.00;81.90;;;;;;4146907;28;20041;-85
2022/12/05 02:04:24;;;;;;;11.15;5.93;;;4.00;81.90;;;;;;4168224;28;20025;-84
2022/12/05 02:06:26;;;;;;;11.75;5.72;;;4.00;81.90;;;;;;4162437;28;20033;-83
2022/12/05 02:08:27;;;;;;;12.13;5.38;;;4.00;81.90;;;;;;4146627;28;20040;-83
2022/12/05 02:10:37;;;;;;;11.48;5.45;;;3.90;82.00;;;;;;4143969;28;20033;-84
2022/12/05 02:12:38;;;;;;;10.25;5.82;;;4.00;81.90;;;;;;4164454;28;20025;-85
2022/12/05 02:15:14;;;;;;;11.48;5.63;;;4.00;81.90;;;;;;4166195;28;20036;-84
2022/12/05 02:17:28;;;;;;;10.02;5.60;;;3.90;81.70;;;;;;4146923;28;20040;-83
2022/12/05 02:20:02;;;;;;;11.30;5.63;;;4.00;81.90;;;;;;4160383;28;20022;-84
2022/12/05 02:22:21;;;;;;;12.93;5.88;;;4.00;81.70;;;;;;4164034;28;20029;-84
2022/12/05 02:24:59;;;;;;;12.85;5.93;;;4.00;81.50;;;;;;4160399;28;20041;-84
2022/12/05 02:27:26;;;;;;;12.55;6.28;;;4.00;81.40;;;;;;4164001;28;20491;-83
2022/12/05 02:29:45;;;;;;;11.55;5.32;;;3.90;81.60;;;;;;4162753;28;20080;-84
2022/12/05 02:31:56;;;;;;;11.48;5.95;;;3.90;81.60;;;;;;4145934;28;20517;-84
2022/12/05 02:34:10;;;;;;;13.20;6.45;;;3.90;81.50;;;;;;4161434;28;20029;-84
2022/12/05 02:36:28;;;;;;;15.50;7.05;;;3.90;81.70;;;;;;4162922;28;20450;-85
2022/12/05 02:38:52;;;;;;;11.52;6.47;;;3.90;81.60;;;;;;4144190;28;20077;-84
2022/12/05 02:41:10;;;;;;;13.60;6.40;;;3.80;81.80;;;;;;4163306;28;20033;-85
2022/12/05 02:43:39;;;;;;;14.13;6.15;;;3.80;81.70;;;;;;4162494;28;20079;-83
2022/12/05 02:45:42;;;;;;;12.50;6.75;;;3.80;81.60;;;;;;4146788;28;20899;-84
2022/12/05 02:47:49;;;;;;;13.98;6.70;;;3.80;81.60;;;;;;4172188;28;20033;-84
2022/12/05 02:49:51;;;;;;;12.82;6.63;;;3.90;81.60;;;;;;4165839;28;20447;-84
2022/12/05 02:51:56;;;;;;;14.90;7.13;;;3.90;81.30;;;;;;4147990;28;20018;-84
2022/12/05 02:54:01;;;;;;;12.88;6.47;;;3.90;81.40;;;;;;4145779;28;20042;-85
2022/12/05 02:56:03;;;;;;;14.90;6.75;;;3.90;81.30;;;;;;4162348;28;20104;-85
2022/12/05 02:58:10;;;;;;;16.13;6.88;;;3.90;81.30;;;;;;4166443;28;20033;-84
2022/12/05 03:00:11;;;;;;;15.98;7.20;;;3.90;81.30;;;;;;4150276;28;20057;-85
2022/12/05 03:02:22;;;;;;;15.52;6.82;;;3.90;81.20;;;;;;4162285;28;20044;-84
2022/12/05 03:04:24;;;;;;;16.10;7.47;;;3.90;81.00;;;;;;4141122;28;20117;-84
2022/12/05 03:06:37;;;;;;;16.15;7.63;;;3.90;80.70;;;;;;4158964;28;20065;-85
2022/12/05 03:08:54;;;;;;;17.50;8.10;;;3.90;80.80;;;;;;4161340;28;20029;-86
2022/12/05 03:10:57;;;;;;;14.15;7.20;;;3.90;80.70;;;;;;4144831;28;20038;-85
2022/12/05 03:13:06;;;;;;;14.55;8.02;;;3.90;80.70;;;;;;4147386;28;20022;-84
2022/12/05 03:15:31;;;;;;;18.52;7.63;;;3.90;80.50;;;;;;4161972;28;20096;-85
2022/12/05 03:17:38;;;;;;;14.77;7.15;;;4.00;80.50;;;;;;4161217;28;20480;-85
2022/12/05 03:20:03;;;;;;;15.48;8.45;;;4.00;80.40;;;;;;4163238;28;20018;-81
2022/12/05 03:22:12;;;;;;;18.77;8.65;;;3.80;80.10;;;;;;4142782;28;20041;-83
2022/12/05 03:24:14;;;;;;;17.58;8.43;;;3.90;80.10;;;;;;4149452;28;20117;-84
2022/12/05 03:26:34;;;;;;;15.85;8.23;;;3.90;80.10;;;;;;4146405;28;20137;-82
2022/12/05 03:29:07;;;;;;;18.20;8.38;;;3.90;80.00;;;;;;4145715;28;20056;-84
2022/12/05 03:31:12;;;;;;;16.33;8.40;;;3.90;80.00;;;;;;4157817;28;20033;-83
2022/12/05 03:33:26;;;;;;;20.58;8.40;;;3.90;80.00;;;;;;4147836;28;20030;-83
2022/12/05 03:36:02;;;;;;;14.95;7.65;;;3.80;79.90;;;;;;4140736;28;20030;-83
2022/12/05 03:38:23;;;;;;;19.00;8.80;;;3.80;79.90;;;;;;4128927;28;20030;-84
2022/12/05 03:40:38;;;;;;;20.92;9.65;;;3.80;79.90;;;;;;4161861;28;20040;-84
2022/12/05 03:42:52;;;;;;;18.92;8.00;;;3.80;79.80;;;;;;4158854;28;20037;-85
2022/12/05 03:45:01;;;;;;;15.85;8.40;;;3.80;79.90;;;;;;4161778;28;20033;-84
2022/12/05 03:47:13;;;;;;;20.40;8.73;;;3.80;79.80;;;;;;4165293;28;20503;-83
2022/12/05 03:49:28;;;;;;;18.40;8.18;;;3.80;79.80;;;;;;4168267;28;20037;-84
2022/12/05 03:51:56;;;;;;;16.00;8.07;;;3.80;79.90;;;;;;4163642;28;20034;-84
2022/12/05 03:54:07;;;;;;;18.92;9.25;;;3.80;79.60;;;;;;4123070;28;20060;-85
2022/12/05 03:56:13;;;;;;;17.50;9.25;;;3.80;79.70;;;;;;4164216;28;20017;-84
2022/12/05 03:58:21;;;;;;;19.13;8.90;;;3.70;79.60;;;;;;4162805;28;20109;-85
2022/12/05 04:00:23;;;;;;;21.42;8.68;;;3.90;79.70;;;;;;4145458;28;20070;-82
2022/12/05 04:02:50;;;;;;;22.70;9.32;;;3.70;79.70;;;;;;4162787;28;20032;-85
2022/12/05 04:04:56;;;;;;;19.80;9.15;;;3.80;79.80;;;;;;4163277;28;20037;-84
2022/12/05 04:07:01;;;;;;;17.63;9.07;;;3.80;79.60;;;;;;4133971;28;20568;-84
2022/12/05 04:09:13;;;;;;;19.65;9.02;;;3.70;79.40;;;;;;4150424;28;20026;-82
2022/12/05 04:11:19;;;;;;;18.60;9.25;;;3.80;79.60;;;;;;4164553;28;20063;-84
2022/12/05 04:13:32;;;;;;;17.20;8.77;;;3.70;79.40;;;;;;4165535;28;20080;-83
2022/12/05 04:17:02;;;;;;;20.02;8.85;;;3.70;79.50;;;;;;4134386;28;20469;-82
2022/12/05 04:18:00;;;;;;;17.50;8.75;;;3.70;79.90;;;;;;4161222;28;20022;-83
2022/12/05 04:22:35;;;;;;;21.30;9.73;;;3.70;79.50;;;;;;4162861;28;20022;-84
2022/12/05 04:27:49;;;;;;;16.52;8.32;;;3.70;79.50;;;;;;4160912;28;20059;-83
2022/12/05 04:30:20;;;;;;;17.73;8.75;;;3.70;79.30;;;;;;4145573;28;20023;-84
2022/12/05 04:32:53;;;;;;;17.08;8.60;;;3.70;79.60;;;;;;4160602;28;20088;-83
2022/12/05 04:35:29;;;;;;;17.30;8.90;;;3.80;79.60;;;;;;4158421;28;20033;-83
2022/12/05 04:37:50;;;;;;;17.73;9.05;;;3.80;79.30;;;;;;4150070;28;20018;-85
2022/12/05 04:40:00;;;;;;;20.08;8.70;;;4.00;79.50;;;;;;4161787;28;20506;-83
2022/12/05 04:42:17;;;;;;;18.50;8.82;;;3.80;79.30;;;;;;4146503;28;20045;-84
2022/12/05 04:44:44;;;;;;;17.52;8.95;;;3.70;79.40;;;;;;4161824;28;20093;-83
2022/12/05 04:47:07;;;;;;;18.33;8.77;;;3.80;79.50;;;;;;4154107;28;20084;-82
2022/12/05 04:49:31;;;;;;;18.35;9.23;;;3.70;79.60;;;;;;4170617;28;20021;-84
2022/12/05 04:51:56;;;;;;;15.80;8.50;;;3.90;79.80;;;;;;4160436;28;20759;-85
2022/12/05 04:54:47;;;;;;;22.35;10.10;;;3.80;80.40;;;;;;4158575;28;20109;-85
2022/12/05 04:57:35;;;;;;;18.38;8.88;;;3.80;79.50;;;;;;4159212;28;20034;-84
2022/12/05 04:59:56;;;;;;;18.55;9.20;;;3.80;79.60;;;;;;4154421;28;20049;-84
2022/12/05 05:02:03;;;;;;;19.33;9.63;;;3.80;79.60;;;;;;4154079;28;20033;-84
2022/12/05 05:04:25;;;;;;;21.38;8.80;;;3.80;79.60;;;;;;4160096;28;20040;-83
2022/12/05 05:06:27;;;;;;;20.88;8.73;;;3.80;79.80;;;;;;4156060;28;20061;-83
2022/12/05 05:08:28;;;;;;;21.50;9.55;;;3.80;80.00;;;;;;4156727;28;20037;-83
2022/12/05 05:10:38;;;;;;;20.25;9.02;;;3.70;79.90;;;;;;4154616;28;20022;-83
2022/12/05 05:12:39;;;;;;;16.00;8.57;;;3.90;80.00;;;;;;4153569;28;20061;-84
2022/12/05 05:14:39;;;;;;;17.35;8.60;;;3.80;80.00;;;;;;4155455;28;20028;-85
2022/12/05 05:16:41;;;;;;;22.13;9.48;;;3.90;80.10;;;;;;4157207;28;20034;-84
2022/12/05 05:18:43;;;;;;;19.20;8.88;;;3.90;80.00;;;;;;4157596;28;20034;-85
2022/12/05 05:20:44;;;;;;;21.52;10.27;;;3.80;79.90;;;;;;4161131;28;20033;-84
2022/12/05 05:22:48;;;;;;;20.08;9.20;;;3.80;80.10;;;;;;4162065;28;20033;-84
2022/12/05 05:24:49;;;;;;;18.52;9.00;;;3.80;80.30;;;;;;4161467;28;20074;-84
2022/12/05 05:26:50;;;;;;;17.88;8.68;;;3.80;80.30;;;;;;4132622;28;20339;-84
2022/12/05 05:28:51;;;;;;;18.55;9.10;;;3.80;80.30;;;;;;4145738;28;20038;-84
2022/12/05 05:30:51;;;;;;;19.85;8.82;;;3.80;80.30;;;;;;4144445;28;20022;-83
2022/12/05 05:32:53;;;;;;;19.55;8.93;;;3.80;80.50;;;;;;4162746;28;20022;-85
2022/12/05 05:34:53;;;;;;;19.15;8.35;;;3.80;80.50;;;;;;4158566;28;20025;-84
2022/12/05 05:36:54;;;;;;;18.65;9.35;;;3.90;80.50;;;;;;4158462;28;20045;-84
2022/12/05 05:38:59;;;;;;;20.23;8.85;;;3.80;80.60;;;;;;4160048;28;20022;-84
2022/12/05 05:40:59;;;;;;;20.40;9.43;;;4.00;80.90;;;;;;4159434;28;20783;-85
2022/12/05 05:43:03;;;;;;;17.90;8.68;;;3.80;80.80;;;;;;4161264;28;20029;-86
2022/12/05 05:45:04;;;;;;;17.77;7.78;;;3.80;80.90;;;;;;4146419;28;20165;-86
2022/12/05 05:47:07;;;;;;;19.55;8.55;;;3.90;80.90;;;;;;4129424;28;20035;-83
2022/12/05 05:49:09;;;;;;;17.90;9.18;;;3.80;80.80;;;;;;4163297;28;20128;-85
2022/12/05 05:51:11;;;;;;;22.90;8.93;;;4.00;80.90;;;;;;4155103;28;20538;-83
2022/12/05 05:53:12;;;;;;;19.48;8.05;;;3.90;80.80;;;;;;4156361;28;20064;-84
2022/12/05 05:55:12;;;;;;;16.35;7.80;;;3.90;80.70;;;;;;4127448;28;20026;-83
2022/12/05 05:57:13;;;;;;;17.77;8.52;;;3.90;80.70;;;;;;4130260;28;20029;-84
2022/12/05 05:59:14;;;;;;;18.98;9.02;;;3.90;80.80;;;;;;4158975;28;20026;-84
2022/12/05 06:01:45;;;;;;;20.15;8.10;;;3.90;80.80;;;;;;4139536;28;20038;-84
2022/12/05 06:03:46;;;;;;;23.17;7.97;;;3.90;80.90;;;;;;4151712;28;20054;-84
2022/12/05 06:05:59;;;;;;;20.40;9.02;;;3.90;81.00;;;;;;4145494;28;20030;-82
2022/12/05 06:08:00;;;;;;;21.63;8.05;;;3.90;80.90;;;;;;4143928;28;20036;-82
2022/12/05 06:10:01;;;;;;;15.30;7.72;;;4.00;81.00;;;;;;4159929;28;20030;-83
2022/12/05 06:12:02;;;;;;;17.63;8.93;;;4.00;81.20;;;;;;4145716;28;20033;-83
2022/12/05 06:14:02;;;;;;;14.98;8.02;;;3.90;81.10;;;;;;4143189;28;20029;-83
2022/12/05 06:16:11;;;;;;;16.00;7.60;;;4.00;81.20;;;;;;4159141;28;20038;-84
2022/12/05 06:18:12;;;;;;;15.63;7.60;;;4.00;81.20;;;;;;4141268;28;20023;-84
2022/12/05 06:20:13;;;;;;;18.30;8.63;;;4.00;81.20;;;;;;4160376;28;20026;-83
2022/12/05 06:22:13;;;;;;;16.75;7.68;;;3.90;81.20;;;;;;4161137;28;20159;-83
2022/12/05 06:24:14;;;;;;;15.98;7.35;;;3.90;81.30;;;;;;4156819;28;20028;-81
2022/12/05 06:26:18;;;;;;;15.90;7.63;;;3.90;81.30;;;;;;4162118;28;20029;-83
2022/12/05 06:28:19;;;;;;;;;;;3.90;81.40;;;;;;4153992;28;20030;-82
2022/12/05 06:30:19;;;;;;;15.85;7.80;;;3.90;81.40;;;;;;4158953;28;19986;-83
2022/12/05 06:32:20;;;;;;;18.42;7.78;;;4.00;81.40;;;;;;4156736;28;20451;-82
2022/12/05 06:34:21;;;;;;;18.65;7.80;;;4.00;81.40;;;;;;4156085;28;20387;-83
2022/12/05 06:36:21;;;;;;;16.95;7.60;;;4.00;82.10;;;;;;4137371;28;20054;-83
2022/12/05 06:38:22;;;;;;;19.65;7.80;;;4.00;81.30;;;;;;4162584;28;20026;-83
2022/12/05 06:40:23;;;;;;;16.17;7.53;;;4.00;81.40;;;;;;4145933;28;20025;-84
2022/12/05 06:42:24;;;;;;;17.83;7.40;;;4.00;81.30;;;;;;4138084;28;20034;-85
2022/12/05 06:44:25;;;;;;;14.15;7.18;;;4.00;81.20;;;;;;4160034;28;20041;-84
2022/12/05 06:46:27;;;;;;;15.38;7.60;;;4.00;81.30;;;;;;4147850;28;20030;-83
2022/12/05 06:48:28;;;;;;;17.27;7.68;;;3.90;81.50;;;;;;4157196;28;20084;-82
2022/12/05 06:50:30;;;;;;;16.00;7.97;;;4.00;81.60;;;;;;4140429;28;20476;-84
2022/12/05 06:52:32;;;;;;;17.70;7.50;;;4.00;81.70;;;;;;4146468;28;20033;-83
2022/12/05 06:54:33;;;;;;;15.63;7.10;;;3.90;81.70;;;;;;4161244;28;20360;-83
2022/12/05 06:56:33;;;;;;;14.27;7.45;;;3.90;81.70;;;;;;4160552;28;20022;-83
2022/12/05 06:58:35;;;;;;;16.83;6.85;;;3.90;81.90;;;;;;4145825;28;20026;-86
2022/12/05 07:03:15;;;;;;;16.45;6.95;;;3.90;82.10;;;;;;4167159;28;20045;-84
2022/12/05 07:05:16;;;;;;;17.10;7.05;;;4.00;82.10;;;;;;4157692;28;20033;-83
2022/12/05 07:07:19;;;;;;;13.65;6.85;;;4.00;82.20;;;;;;4125333;28;20023;-85
2022/12/05 07:09:50;;;;;;;16.75;6.55;;;3.90;82.20;;;;;;4145926;28;20030;-83
2022/12/05 07:12:16;;;;;;;15.38;6.85;;;3.90;82.40;;;;;;4156880;28;20124;-83
2022/12/05 07:14:21;;;;;;;12.85;6.68;;;3.90;82.70;;;;;;4141397;28;20175;-83
2022/12/05 07:16:24;;;;;;;14.88;6.97;;;3.80;82.80;;;;;;4137665;28;20157;-83
2022/12/05 07:18:25;;;;;;;12.60;6.68;;;4.00;82.80;;;;;;4156365;28;20034;-84
2022/12/05 07:20:56;;;;;;;12.38;6.35;;;3.80;82.80;;;;;;4158765;28;20045;-83
2022/12/05 07:23:16;;;;;;;13.80;7.47;;;3.80;83.10;;;;;;4162995;28;20030;-83
2022/12/05 07:25:40;;;;;;;14.77;6.70;;;3.70;83.50;;;;;;4157054;28;20090;-83
2022/12/05 07:28:01;;;;;;;14.40;6.20;;;3.80;83.60;;;;;;4160986;28;20026;-83
2022/12/05 07:30:05;;;;;;;14.68;6.68;;;3.80;83.60;;;;;;4161820;28;20024;-83
2022/12/05 07:32:29;;;;;;;11.38;6.13;;;3.70;83.60;;;;;;4155555;28;20034;-82
2022/12/05 07:34:50;;;;;;;16.95;7.13;;;3.80;83.80;;;;;;4157893;28;20113;-84
2022/12/05 07:37:12;;;;;;;10.90;5.75;;;3.80;83.90;;;;;;4157622;28;20052;-83
2022/12/05 07:39:33;;;;;;;10.23;5.35;;;3.80;83.70;;;;;;4157101;28;20112;-83
2022/12/05 07:41:54;;;;;;;15.35;6.90;;;3.90;83.70;;;;;;4143811;28;20021;-84
2022/12/05 07:44:14;;;;;;;14.43;6.32;;;3.80;83.90;;;;;;4142091;28;20033;-82
2022/12/05 07:46:35;;;;;;;14.52;6.68;;;3.80;83.90;;;;;;4153044;28;20386;-84
2022/12/05 07:48:55;;;;;;;17.15;6.88;;;3.80;84.00;;;;;;4153295;28;20098;-84
2022/12/05 07:51:17;;;;;;;12.25;5.50;;;3.90;84.00;;;;;;4146156;28;20060;-84
2022/12/05 07:53:38;;;;;;;11.77;6.07;;;3.90;84.00;;;;;;4155582;28;20060;-83
2022/12/05 07:56:01;;;;;;;18.38;5.80;;;3.80;84.10;;;;;;4158826;28;20026;-83
2022/12/05 07:58:01;;;;;;;15.77;6.43;;;3.70;84.20;;;;;;4141167;28;20022;-82
2022/12/05 08:00:03;;;;;;;14.88;6.13;;;3.80;84.20;;;;;;4163122;28;20250;-84
2022/12/05 08:02:05;;;;;;;14.52;6.30;;;3.80;84.20;;;;;;4146477;28;20427;-83
2022/12/05 08:04:06;;;;;;;13.18;5.75;;;3.70;84.40;;;;;;4162533;28;20029;-83
2022/12/05 08:06:13;;;;;;;15.68;6.20;;;3.70;84.50;;;;;;4162806;28;20100;-83
2022/12/05 08:08:13;;;;;;;12.90;6.82;;;3.80;84.50;;;;;;4151458;28;20076;-84
2022/12/05 08:10:14;;;;;;;14.07;6.05;;;3.70;84.80;;;;;;4146723;28;20030;-82
2022/12/05 08:12:15;;;;;;;13.23;6.00;;;3.70;85.10;;;;;;4159247;28;20021;-83
2022/12/05 08:14:15;;;;;;;12.07;6.05;;;3.80;85.00;;;;;;4140817;28;20053;-84
2022/12/05 08:16:19;;;;;;;13.45;6.07;;;3.70;84.80;;;;;;4159182;28;20034;-83
2022/12/05 08:18:20;;;;;;;17.02;5.85;;;3.80;84.90;;;;;;4160969;28;20125;-82
2022/12/05 08:20:20;;;;;;;14.93;5.93;;;3.80;84.90;;;;;;4158306;28;20439;-82
2022/12/05 08:22:21;;;;;;;10.00;5.05;;;3.80;84.70;;;;;;4127732;28;20026;-83
2022/12/05 08:24:23;;;;;;;13.73;6.35;;;3.80;84.60;;;;;;4144084;28;20037;-82
2022/12/05 08:26:27;;;;;;;10.05;5.28;;;3.80;84.60;;;;;;4157149;28;20025;-83
2022/12/05 08:28:28;;;;;;;12.60;5.50;;;3.90;84.60;;;;;;4163279;28;20105;-84
2022/12/05 08:30:47;;;;;;;11.95;5.70;;;3.90;84.60;;;;;;4154868;28;20096;-83
2022/12/05 08:32:47;;;;;;;13.68;5.53;;;3.90;84.40;;;;;;4159864;28;20021;-83
2022/12/05 08:34:48;;;;;;;11.05;6.05;;;3.90;84.50;;;;;;4162583;28;21084;-84
2022/12/05 08:36:49;;;;;;;15.68;6.28;;;3.90;84.40;;;;;;4161498;28;20443;-84
2022/12/05 08:38:55;;;;;;;10.20;5.68;;;3.90;84.30;;;;;;4162867;28;20033;-83
2022/12/05 08:41:03;;;;;;;12.95;6.22;;;3.90;84.30;;;;;;4144398;28;20034;-84
2022/12/05 08:43:03;;;;;;;14.95;5.43;;;3.90;84.20;;;;;;4124099;28;20038;-82
2022/12/05 08:45:04;;;;;;;13.27;5.43;;;4.00;84.10;;;;;;4159774;28;20052;-85
2022/12/05 08:47:05;;;;;;;14.32;5.40;;;4.00;84.10;;;;;;4125350;28;20055;-83
2022/12/05 08:49:06;;;;;;;13.43;5.50;;;4.00;84.00;;;;;;4158252;28;20030;-83
2022/12/05 08:51:08;;;;;;;21.05;6.45;;;4.00;84.00;;;;;;4141072;28;20037;-83
2022/12/05 08:53:09;;;;;;;12.85;5.60;;;4.00;84.00;;;;;;4127226;28;20130;-83
2022/12/05 08:55:10;;;;;;;11.57;5.70;;;4.00;84.00;;;;;;4160365;28;20022;-84
2022/12/05 08:57:10;;;;;;;10.30;5.20;;;4.00;83.90;;;;;;4145410;28;20029;-84
2022/12/05 08:59:11;;;;;;;10.75;5.60;;;4.10;83.80;;;;;;4165207;28;20029;-82
2022/12/05 09:01:15;;;;;;;10.68;5.63;;;4.10;83.70;;;;;;4173914;28;20097;-82
2022/12/05 09:03:15;;;;;;;11.63;5.20;;;4.10;83.70;;;;;;4166174;28;20029;-82
2022/12/05 09:05:17;;;;;;;10.85;4.50;;;4.10;83.60;;;;;;4164232;28;20044;-84
2022/12/05 09:07:18;;;;;;;7.82;4.50;;;4.10;83.70;;;;;;4164650;28;20037;-84
2022/12/05 09:09:18;;;;;;;15.32;5.10;;;4.10;83.50;;;;;;4160490;28;20648;-83
2022/12/05 09:11:24;;;;;;;9.63;4.80;;;4.10;83.70;;;;;;4148338;28;20463;-83
2022/12/05 09:13:25;;;;;;;13.13;5.80;;;4.10;83.50;;;;;;4165385;28;20026;-83
2022/12/05 09:15:26;;;;;;;9.77;4.68;;;4.10;83.60;;;;;;4163028;28;20041;-84
2022/12/05 09:17:26;;;;;;;11.50;5.05;;;4.10;83.60;;;;;;4162456;28;20033;-84
2022/12/05 09:19:27;;;;;;;9.77;4.85;;;4.10;83.50;;;;;;4160760;28;20022;-84
2022/12/05 09:21:29;;;;;;;11.18;4.78;;;4.10;83.50;;;;;;4143367;28;20096;-83
2022/12/05 09:23:31;;;;;;;14.33;5.40;;;4.10;83.50;;;;;;4148814;28;20033;-84
2022/12/05 09:25:33;;;;;;;12.60;4.88;;;4.00;83.40;;;;;;4163914;28;20029;-84
2022/12/05 09:27:34;;;;;;;10.67;4.90;;;4.00;83.50;;;;;;4165778;28;20051;-83
2022/12/05 09:29:35;;;;;;;9.25;4.25;;;4.00;83.40;;;;;;4144247;28;20053;-84
2022/12/05 09:31:35;;;;;;;10.80;4.95;;;4.10;83.30;;;;;;4162906;28;20034;-84
2022/12/05 09:33:37;;;;;;;8.98;4.68;;;4.10;83.30;;;;;;4161417;28;20053;-84
2022/12/05 09:35:39;;;;;;;11.77;4.85;;;4.10;83.20;;;;;;4162558;28;20025;-84
2022/12/05 09:37:40;;;;;;;9.95;3.97;;;4.00;83.20;;;;;;4162299;28;20085;-84
2022/12/05 09:39:45;;;;;;;12.13;4.65;;;4.10;83.20;;;;;;4160600;28;20030;-82
2022/12/05 09:42:08;;;;;;;9.38;4.70;;;4.00;83.10;;;;;;4162204;28;20061;-84
2022/12/05 09:44:29;;;;;;;11.23;4.60;;;4.00;83.00;;;;;;4145153;28;20100;-85
2022/12/05 09:46:53;;;;;;;12.85;4.38;;;4.10;83.00;;;;;;4162697;28;20145;-84
2022/12/05 09:48:56;;;;;;;8.50;4.40;;;4.10;82.90;;;;;;4144917;28;20030;-84
2022/12/05 09:51:01;;;;;;;11.63;4.60;;;4.20;82.90;;;;;;4132515;28;20042;-84
2022/12/05 09:53:08;;;;;;;10.82;4.25;;;4.10;82.70;;;;;;4165739;28;20026;-84
2022/12/05 09:55:16;;;;;;;7.30;4.00;;;4.20;82.50;;;;;;4145735;28;20030;-85
2022/12/05 09:57:22;;;;;;;10.30;4.78;;;4.20;82.50;;;;;;4164051;28;20029;-84
2022/12/05 09:59:22;;;;;;;8.45;4.50;;;4.30;82.60;;;;;;4136332;28;20033;-85
2022/12/05 10:01:41;;;;;;;13.35;4.78;;;4.20;82.50;;;;;;4162209;28;20586;-84
2022/12/05 10:03:57;;;;;;;9.05;3.97;;;4.10;82.10;;;;;;4162992;28;20112;-85
2022/12/05 10:06:12;;;;;;;9.95;4.38;;;4.20;82.40;;;;;;4165877;28;20033;-83
2022/12/05 10:08:28;;;;;;;11.75;4.38;;;4.20;82.40;;;;;;4149028;28;20072;-84
2022/12/05 10:10:58;;;;;;;10.52;4.57;;;4.20;82.20;;;;;;4165662;28;20033;-85
2022/12/05 10:13:46;;;;;;;11.45;4.43;;;4.20;82.00;;;;;;4167540;28;20046;-83
2022/12/05 10:16:17;;;;;;;8.27;4.32;;;4.20;82.10;;;;;;4165057;28;20088;-84
2022/12/05 10:19:11;;;;;;;9.30;4.18;;;4.20;82.00;;;;;;4164822;28;20022;-84
2022/12/05 10:21:38;;;;;;;7.10;4.25;;;4.20;81.70;;;;;;4147468;28;20037;-84
2022/12/05 10:24:09;;;;;;;6.93;4.00;;;4.30;81.80;;;;;;4161693;28;20033;-84
2022/12/05 10:26:44;;;;;;;11.25;4.97;;;4.20;81.70;;;;;;4148924;28;20129;-85
2022/12/05 10:29:30;;;;;;;10.05;4.70;;;4.20;81.70;;;;;;4161787;28;20101;-85
2022/12/05 10:31:59;;;;;;;8.75;4.55;;;4.20;81.50;;;;;;4161442;28;20042;-84
2022/12/05 10:34:40;;;;;;;10.88;4.93;;;4.20;81.60;;;;;;4159037;28;20056;-84
2022/12/05 10:37:06;;;;;;;10.07;5.15;;;4.20;81.50;;;;;;4163921;28;20044;-84
2022/12/05 10:39:09;;;;;;;10.57;4.82;;;4.30;81.60;;;;;;4160138;28;20022;-84
2022/12/05 10:41:12;;;;;;;9.82;3.92;;;4.20;81.50;;;;;;4160918;28;20025;-84
2022/12/05 10:43:17;;;;;;;8.57;4.25;;;4.30;81.60;;;;;;4164565;28;20037;-84
2022/12/05 10:45:22;;;;;;;12.50;4.53;;;4.30;82.20;;;;;;4162330;28;20112;-83
2022/12/05 10:47:23;;;;;;;11.25;4.35;;;4.30;81.50;;;;;;4147387;28;20041;-83
2022/12/05 10:49:25;;;;;;;10.35;4.40;;;4.40;81.50;;;;;;4145868;28;20030;-83
2022/12/05 10:51:27;;;;;;;8.73;4.43;;;4.30;81.30;;;;;;4159116;28;20072;-84
2022/12/05 10:53:49;;;;;;;12.00;4.95;;;4.30;81.40;;;;;;4140904;28;20408;-85
2022/12/05 10:55:50;;;;;;;10.63;4.35;;;4.30;81.30;;;;;;4143212;28;20049;-83
2022/12/05 10:58:07;;;;;;;7.28;3.80;;;4.30;81.20;;;;;;4163748;28;20052;-81
2022/12/05 11:00:12;;;;;;;13.10;4.05;;;4.30;81.10;;;;;;4158652;28;20014;-83
2022/12/05 11:02:28;;;;;;;9.23;4.03;;;4.30;81.20;;;;;;4129006;28;20022;-85
2022/12/05 11:04:39;;;;;;;9.40;4.40;;;4.30;81.10;;;;;;4161219;28;20040;-84
2022/12/05 11:07:08;;;;;;;10.15;3.92;;;4.30;80.90;;;;;;4144332;28;20029;-83
2022/12/05 11:09:22;;;;;;;9.50;4.18;;;4.40;81.10;;;;;;4162471;28;20339;-83
2022/12/05 11:11:29;;;;;;;9.73;4.28;;;4.40;81.00;;;;;;4147770;28;20025;-84
2022/12/05 11:13:30;;;;;;;8.73;4.00;;;4.30;80.90;;;;;;4159402;28;20029;-84
2022/12/05 11:15:31;;;;;;;8.98;4.47;;;4.30;81.00;;;;;;4159967;28;20088;-83
2022/12/05 11:17:39;;;;;;;11.93;4.55;;;4.30;81.00;;;;;;4167005;28;20033;-83
2022/12/05 11:19:39;;;;;;;9.35;4.28;;;4.30;80.90;;;;;;4160305;28;20017;-83
2022/12/05 11:21:43;;;;;;;10.10;4.20;;;4.40;80.90;;;;;;4164531;28;21548;-83
2022/12/05 11:23:44;;;;;;;12.75;5.30;;;4.40;80.90;;;;;;4162382;28;20254;-83